createdAt,value
2023-04-25T00:02:18.672Z,99.90
2023-04-25T00:04:45.870Z,99.90
2023-04-25T00:07:12.985Z,99.90
2023-04-25T00:09:39.696Z,99.90
2023-04-25T00:12:06.664Z,99.90
2023-04-25T00:14:33.363Z,99.90
2023-04-25T00:17:00.077Z,99.90
2023-04-25T00:19:27.227Z,99.90
2023-04-25T00:21:53.969Z,99.90
2023-04-25T00:24:21.009Z,99.90
2023-04-25T00:26:48.816Z,99.90
2023-04-25T00:29:16.727Z,99.90
2023-04-25T00:31:47.416Z,99.90
2023-04-25T00:34:17.754Z,99.90
2023-04-25T00:36:48.913Z,99.90
2023-04-25T00:39:15.531Z,99.90
2023-04-25T00:41:42.319Z,99.90
2023-04-25T00:44:10.183Z,99.90
2023-04-25T00:46:37.266Z,99.90
2023-04-25T00:49:04.026Z,99.90
2023-04-25T00:51:33.626Z,99.90
2023-04-25T00:54:01.014Z,99.90
2023-04-25T00:56:27.750Z,99.90
2023-04-25T00:58:55.173Z,99.90
2023-04-25T01:01:21.991Z,99.90
2023-04-25T01:03:50.334Z,99.90
2023-04-25T01:06:20.190Z,99.90
2023-04-25T01:08:46.913Z,99.90
2023-04-25T01:11:13.637Z,99.90
2023-04-25T01:13:40.433Z,99.90
2023-04-25T01:16:07.377Z,99.90
2023-04-25T01:18:34.235Z,99.90
2023-04-25T01:21:08.965Z,99.90
2023-04-25T01:23:36.133Z,99.90
2023-04-25T01:26:03.824Z,99.90
2023-04-25T01:28:30.994Z,99.90
2023-04-25T01:30:58.475Z,99.90
2023-04-25T01:33:25.204Z,99.90
2023-04-25T01:35:52.199Z,99.90
2023-04-25T01:38:20.682Z,99.90
2023-04-25T01:40:47.604Z,99.90
2023-04-25T01:43:15.914Z,99.90
2023-04-25T01:45:44.121Z,99.90
2023-04-25T01:48:14.848Z,99.90
2023-04-25T01:50:44.782Z,99.90
2023-04-25T01:53:14.466Z,99.90
2023-04-25T01:55:42.427Z,99.90
2023-04-25T01:58:09.937Z,99.90
2023-04-25T02:00:38.327Z,99.90
2023-04-25T02:03:05.722Z,99.90
2023-04-25T02:05:55.718Z,99.90
2023-04-25T02:08:22.479Z,99.90
2023-04-25T02:10:50.450Z,99.90
2023-04-25T02:13:18.465Z,99.90
2023-04-25T02:18:38.400Z,99.90
2023-04-25T02:21:05.168Z,99.90
2023-04-25T02:23:32.183Z,99.90
2023-04-25T02:25:59.091Z,99.90
2023-04-25T02:28:27.058Z,99.90
2023-04-25T02:30:56.175Z,99.90
2023-04-25T02:33:24.186Z,99.90
2023-04-25T02:35:52.360Z,99.90
2023-04-25T02:38:22.502Z,99.90
2023-04-25T02:40:55.836Z,99.90
2023-04-25T02:43:24.622Z,99.90
2023-04-25T02:45:51.355Z,99.90
2023-04-25T02:48:18.070Z,99.90
2023-04-25T02:50:44.910Z,99.90
2023-04-25T02:53:11.572Z,99.90
2023-04-25T02:55:38.256Z,99.90
2023-04-25T02:58:05.272Z,99.90
2023-04-25T03:00:32.066Z,99.90
2023-04-25T03:02:58.980Z,99.90
2023-04-25T03:05:25.847Z,99.90
2023-04-25T03:07:52.797Z,99.90
2023-04-25T03:10:19.477Z,99.90
2023-04-25T03:12:46.450Z,99.90
2023-04-25T03:15:14.177Z,99.90
2023-04-25T03:17:42.992Z,99.90
2023-04-25T03:20:11.764Z,99.90
2023-04-25T03:22:38.511Z,99.90
2023-04-25T03:25:05.794Z,99.90
2023-04-25T03:27:32.581Z,99.90
2023-04-25T03:29:59.243Z,99.90
2023-04-25T03:32:26.032Z,99.90
2023-04-25T03:34:52.750Z,99.90
2023-04-25T03:37:20.616Z,99.90
2023-04-25T03:39:47.302Z,99.90
2023-04-25T03:42:15.307Z,99.90
2023-04-25T03:44:41.985Z,99.90
2023-04-25T03:47:10.080Z,99.90
2023-04-25T03:49:37.101Z,99.90
2023-04-25T03:52:05.375Z,99.90
2023-04-25T03:54:35.091Z,99.90
2023-04-25T03:57:01.836Z,99.90
2023-04-25T03:59:28.546Z,99.90
2023-04-25T04:01:55.577Z,99.90
2023-04-25T04:04:22.587Z,99.90
2023-04-25T04:06:49.429Z,99.90
2023-04-25T04:09:16.160Z,99.90
2023-04-25T04:11:42.848Z,99.90
2023-04-25T04:14:09.567Z,99.90
2023-04-25T04:16:36.324Z,99.90
2023-04-25T04:19:03.638Z,99.90
2023-04-25T04:21:30.366Z,99.90
2023-04-25T04:23:57.123Z,99.90
2023-04-25T04:26:25.117Z,99.90
2023-04-25T04:29:02.471Z,99.90
2023-04-25T04:31:31.750Z,99.90
2023-04-25T04:33:59.707Z,99.90
2023-04-25T04:36:30.469Z,99.90
2023-04-25T04:39:01.889Z,99.90
2023-04-25T04:41:37.921Z,99.90
2023-04-25T04:44:07.132Z,99.90
2023-04-25T04:46:45.796Z,99.90
2023-04-25T04:49:13.353Z,99.90
2023-04-25T04:51:41.867Z,99.90
2023-04-25T04:54:11.673Z,99.90
2023-04-25T04:56:38.388Z,99.90
2023-04-25T04:59:05.158Z,99.90
2023-04-25T05:01:31.901Z,99.90
2023-04-25T05:03:58.805Z,99.90
2023-04-25T05:06:25.861Z,99.90
2023-04-25T05:08:52.662Z,99.90
2023-04-25T05:11:20.968Z,99.90
2023-04-25T05:13:47.891Z,99.90
2023-04-25T05:16:16.019Z,99.90
2023-04-25T05:18:47.755Z,99.90
2023-04-25T05:21:15.424Z,99.90
2023-04-25T05:23:43.353Z,99.90
2023-04-25T05:26:19.762Z,99.90
2023-04-25T05:28:48.618Z,99.90
2023-04-25T05:31:18.094Z,99.90
2023-04-25T05:33:47.582Z,99.90
2023-04-25T05:36:14.245Z,99.90
2023-04-25T05:38:41.482Z,99.90
2023-04-25T05:41:08.518Z,99.90
2023-04-25T05:43:35.246Z,99.90
2023-04-25T05:46:02.126Z,99.90
2023-04-25T05:48:28.951Z,99.90
2023-04-25T05:50:55.671Z,99.90
2023-04-25T05:53:24.198Z,99.90
2023-04-25T05:55:50.857Z,99.90
2023-04-25T05:58:17.536Z,99.90
2023-04-25T06:00:44.340Z,99.90
2023-04-25T06:03:12.248Z,99.90
2023-04-25T06:05:39.143Z,99.90
2023-04-25T06:08:08.859Z,99.90
2023-04-25T06:10:40.130Z,99.90
2023-04-25T06:13:09.841Z,99.90
2023-04-25T06:15:50.143Z,99.90
2023-04-25T06:18:18.448Z,99.90
2023-04-25T06:20:45.425Z,99.90
2023-04-25T06:23:16.609Z,99.90
2023-04-25T06:25:44.803Z,99.90
2023-04-25T06:28:13.752Z,99.90
2023-04-25T06:30:40.518Z,99.90
2023-04-25T06:33:07.322Z,99.90
2023-04-25T06:35:34.223Z,99.90
2023-04-25T06:38:00.971Z,99.90
2023-04-25T06:40:30.783Z,99.90
2023-04-25T06:42:57.510Z,99.90
2023-04-25T06:45:24.522Z,99.90
2023-04-25T06:47:52.662Z,99.90
2023-04-25T06:50:19.812Z,99.90
2023-04-25T06:52:46.814Z,99.90
2023-04-25T06:55:16.228Z,99.90
2023-04-25T06:57:42.933Z,99.90
2023-04-25T07:00:11.665Z,99.90
2023-04-25T07:02:38.547Z,99.90
2023-04-25T07:05:16.147Z,99.90
2023-04-25T07:07:45.669Z,99.90
2023-04-25T07:10:13.406Z,99.90
2023-04-25T07:12:41.796Z,99.90
2023-04-25T07:15:10.500Z,99.90
2023-04-25T07:17:40.419Z,99.90
2023-04-25T07:20:07.691Z,99.90
2023-04-25T07:22:34.431Z,99.90
2023-04-25T07:25:01.193Z,99.90
2023-04-25T07:27:30.224Z,99.90
2023-04-25T07:29:57.022Z,99.90
2023-04-25T07:32:25.038Z,99.90
2023-04-25T07:34:51.903Z,99.90
2023-04-25T07:37:18.647Z,99.90
2023-04-25T07:39:46.746Z,99.90
2023-04-25T07:42:14.012Z,99.90
2023-04-25T07:44:42.264Z,99.90
2023-04-25T07:47:10.127Z,99.90
2023-04-25T07:49:41.055Z,99.90
2023-04-25T07:52:11.970Z,99.90
2023-04-25T07:54:43.232Z,99.90
2023-04-25T07:57:10.126Z,99.90
2023-04-25T07:59:38.288Z,99.90
2023-04-25T08:02:06.947Z,99.90
2023-04-25T08:04:37.847Z,99.90
2023-04-25T08:07:06.870Z,99.90
2023-04-25T08:09:37.348Z,99.90
2023-04-25T08:12:04.906Z,99.90
2023-04-25T08:14:31.724Z,99.90
2023-04-25T08:16:58.422Z,99.90
2023-04-25T08:19:25.135Z,99.90
2023-04-25T08:21:52.302Z,99.90
2023-04-25T08:24:18.990Z,99.90
2023-04-25T08:26:45.666Z,99.90
2023-04-25T08:29:12.359Z,99.90
2023-04-25T08:31:39.848Z,99.90
2023-04-25T08:34:08.108Z,99.90
2023-04-25T08:36:39.308Z,99.90
2023-04-25T08:39:08.118Z,99.90
2023-04-25T08:41:37.472Z,99.90
2023-04-25T08:44:08.044Z,99.90
2023-04-25T08:46:38.826Z,99.90
2023-04-25T08:49:05.845Z,99.90
2023-04-25T08:51:34.081Z,99.90
2023-04-25T08:56:48.801Z,99.90
2023-04-25T08:59:16.623Z,99.90
2023-04-25T09:01:47.013Z,99.90
2023-04-25T09:04:16.143Z,99.90
2023-04-25T09:06:48.071Z,99.90
2023-04-25T09:09:15.360Z,99.90
2023-04-25T09:11:42.099Z,99.90
2023-04-25T09:14:18.667Z,99.90
2023-04-25T09:17:02.938Z,99.90
2023-04-25T09:22:05.733Z,99.90
2023-04-25T09:24:45.672Z,99.90
2023-04-25T09:27:19.362Z,99.90
2023-04-25T09:29:47.580Z,99.90
2023-04-25T09:32:22.857Z,99.90
2023-04-25T09:34:53.074Z,99.90
2023-04-25T09:37:25.396Z,99.90
2023-04-25T09:40:06.826Z,99.90
2023-04-25T09:42:51.725Z,99.90
2023-04-25T09:45:19.813Z,99.90
2023-04-25T09:47:48.267Z,99.90
2023-04-25T09:50:18.726Z,99.90
2023-04-25T09:52:46.655Z,99.90
2023-04-25T09:55:14.650Z,99.90
2023-04-25T09:57:45.954Z,99.90
2023-04-25T10:00:23.460Z,99.90
2023-04-25T10:02:52.595Z,99.90
2023-04-25T10:05:22.896Z,99.20
2023-04-25T10:07:58.028Z,99.30
2023-04-25T10:10:26.134Z,98.70
2023-04-25T10:12:55.419Z,97.20
2023-04-25T10:15:23.062Z,97.40
2023-04-25T10:17:51.594Z,97.50
2023-04-25T10:20:18.485Z,95.10
2023-04-25T10:22:48.917Z,94.90
2023-04-25T10:25:16.035Z,95.20
2023-04-25T10:27:42.837Z,94.80
2023-04-25T10:30:12.627Z,95.20
2023-04-25T10:32:39.869Z,94.90
2023-04-25T10:35:18.166Z,93.50
2023-04-25T10:38:10.030Z,92.40
2023-04-25T10:40:37.027Z,93.00
2023-04-25T10:43:33.839Z,93.00
2023-04-25T10:46:02.416Z,93.50
2023-04-25T10:48:30.662Z,93.70
2023-04-25T10:51:24.117Z,93.30
2023-04-25T10:53:57.020Z,92.40
2023-04-25T10:56:27.602Z,91.80
2023-04-25T10:59:17.941Z,92.30
2023-04-25T11:01:49.648Z,91.60
2023-04-25T11:04:25.753Z,91.50
2023-04-25T11:07:08.259Z,91.10
2023-04-25T11:09:42.198Z,91.20
2023-04-25T11:12:10.645Z,91.10
2023-04-25T11:17:07.492Z,90.80
2023-04-25T11:19:34.629Z,90.90
2023-04-25T11:22:02.735Z,90.50
2023-04-25T11:24:33.409Z,90.50
2023-04-25T11:27:00.745Z,90.70
2023-04-25T11:29:32.523Z,91.30
2023-04-25T11:31:59.973Z,91.60
2023-04-25T11:34:27.588Z,92.00
2023-04-25T11:36:54.754Z,91.80
2023-04-25T11:39:21.897Z,91.70
2023-04-25T11:41:49.013Z,91.10
2023-04-25T11:44:21.193Z,89.60
2023-04-25T11:46:50.022Z,89.20
2023-04-25T11:49:18.791Z,89.30
2023-04-25T11:51:49.708Z,88.30
2023-04-25T11:54:17.931Z,87.30
2023-04-25T11:56:49.778Z,85.30
2023-04-25T11:59:17.860Z,84.40
2023-04-25T12:01:51.684Z,83.60
2023-04-25T12:04:25.920Z,84.00
2023-04-25T12:06:58.257Z,84.70
2023-04-25T12:09:34.315Z,83.10
2023-04-25T12:12:02.319Z,82.00
2023-04-25T12:14:32.159Z,82.10
2023-04-25T12:17:01.012Z,82.20
2023-04-25T12:19:33.018Z,82.90
2023-04-25T12:22:03.530Z,83.40
2023-04-25T12:24:39.526Z,82.90
2023-04-25T12:27:09.396Z,83.60
2023-04-25T12:29:49.264Z,83.90
2023-04-25T12:32:17.878Z,83.10
2023-04-25T12:34:45.361Z,79.30
2023-04-25T12:37:18.937Z,79.20
2023-04-25T12:39:51.911Z,79.80
2023-04-25T12:42:19.344Z,78.40
2023-04-25T12:44:47.208Z,78.90
2023-04-25T12:47:24.080Z,77.30
2023-04-25T12:49:50.952Z,77.90
2023-04-25T12:52:17.717Z,75.60
2023-04-25T12:54:44.460Z,75.50
2023-04-25T12:57:11.684Z,76.30
2023-04-25T12:59:41.496Z,77.20
2023-04-25T13:02:08.353Z,76.60
2023-04-25T13:04:35.166Z,74.80
2023-04-25T13:07:02.331Z,72.50
2023-04-25T13:09:29.138Z,72.60
2023-04-25T13:11:57.285Z,72.50
2023-04-25T13:14:26.043Z,73.90
2023-04-25T13:16:52.923Z,73.80
2023-04-25T13:19:21.440Z,73.10
2023-04-25T13:21:48.418Z,74.20
2023-04-25T13:24:17.140Z,74.00
2023-04-25T13:26:45.246Z,72.00
2023-04-25T13:29:16.114Z,71.20
2023-04-25T13:31:45.099Z,71.10
2023-04-25T13:34:11.996Z,71.40
2023-04-25T13:36:38.898Z,72.10
2023-04-25T13:39:05.574Z,74.30
2023-04-25T13:41:32.618Z,75.00
2023-04-25T13:43:59.328Z,76.00
2023-04-25T13:46:44.979Z,76.60
2023-04-25T13:49:24.427Z,77.30
2023-04-25T13:51:55.562Z,77.90
2023-04-25T13:54:23.844Z,78.30
2023-04-25T13:56:50.706Z,78.60
2023-04-25T13:59:17.458Z,79.00
2023-04-25T14:01:44.434Z,79.40
2023-04-25T14:04:11.378Z,79.60
2023-04-25T14:06:38.212Z,78.70
2023-04-25T14:09:05.679Z,78.00
2023-04-25T14:11:32.574Z,78.30
2023-04-25T14:14:00.645Z,78.30
2023-04-25T14:16:28.734Z,78.50
2023-04-25T14:19:05.923Z,78.80
2023-04-25T14:21:44.524Z,79.10
2023-04-25T14:24:18.148Z,78.70
2023-04-25T14:26:46.397Z,79.60
2023-04-25T14:29:14.356Z,79.70
2023-04-25T14:31:41.833Z,79.80
2023-04-25T14:34:09.864Z,80.40
2023-04-25T14:36:37.336Z,81.10
2023-04-25T14:39:05.148Z,81.10
2023-04-25T14:41:32.005Z,80.50
2023-04-25T14:43:58.687Z,78.80
2023-04-25T14:46:25.459Z,79.30
2023-04-25T14:48:52.501Z,79.80
2023-04-25T14:51:19.307Z,78.70
2023-04-25T14:53:46.067Z,78.70
2023-04-25T14:56:13.167Z,79.00
2023-04-25T14:58:40.747Z,79.70
2023-04-25T15:01:07.786Z,80.20
2023-04-25T15:03:36.929Z,81.20
2023-04-25T15:06:04.168Z,82.00
2023-04-25T15:08:30.860Z,82.90
2023-04-25T15:10:59.112Z,84.30
2023-04-25T15:13:26.443Z,85.30
2023-04-25T15:15:56.269Z,86.30
2023-04-25T15:18:23.365Z,86.80
2023-04-25T15:20:55.173Z,87.30
2023-04-25T15:23:28.499Z,87.80
2023-04-25T15:25:56.588Z,87.40
2023-04-25T15:28:23.300Z,86.50
2023-04-25T15:30:54.495Z,86.10
2023-04-25T15:33:21.203Z,86.20
2023-04-25T15:35:48.537Z,86.00
2023-04-25T15:38:15.736Z,82.80
2023-04-25T15:40:42.480Z,81.30
2023-04-25T15:43:09.562Z,81.00
2023-04-25T15:45:36.710Z,80.90
2023-04-25T15:48:03.614Z,80.50
2023-04-25T15:50:30.481Z,80.00
2023-04-25T15:52:57.258Z,80.00
2023-04-25T15:55:23.968Z,80.40
2023-04-25T15:57:50.905Z,81.00
2023-04-25T16:00:18.127Z,80.40
2023-04-25T16:02:46.241Z,80.60
2023-04-25T16:05:13.936Z,80.40
2023-04-25T16:07:42.135Z,80.70
2023-04-25T16:10:09.841Z,81.10
2023-04-25T16:12:36.815Z,80.70
2023-04-25T16:15:04.483Z,80.90
2023-04-25T16:17:31.155Z,81.30
2023-04-25T16:19:58.043Z,80.80
2023-04-25T16:22:25.328Z,81.50
2023-04-25T16:24:52.729Z,78.50
2023-04-25T16:27:20.214Z,77.40
2023-04-25T16:29:48.108Z,75.80
2023-04-25T16:32:15.831Z,76.00
2023-04-25T16:34:44.178Z,76.90
2023-04-25T16:37:11.226Z,77.50
2023-04-25T16:39:39.450Z,77.10
2023-04-25T16:42:06.268Z,76.40
2023-04-25T16:44:33.024Z,76.80
2023-04-25T16:46:59.801Z,77.20
2023-04-25T16:49:26.601Z,77.90
2023-04-25T16:51:53.633Z,78.00
2023-04-25T16:54:20.325Z,78.80
2023-04-25T16:56:47.050Z,78.90
2023-04-25T16:59:13.834Z,79.20
2023-04-25T17:01:40.565Z,79.00
2023-04-25T17:04:07.406Z,79.00
2023-04-25T17:06:34.382Z,78.30
2023-04-25T17:09:01.286Z,77.80
2023-04-25T17:11:27.997Z,78.40
2023-04-25T17:13:54.759Z,78.50
2023-04-25T17:16:22.708Z,79.00
2023-04-25T17:18:50.640Z,79.20
2023-04-25T17:21:18.132Z,79.40
2023-04-25T17:23:45.320Z,79.30
2023-04-25T17:26:13.186Z,79.50
2023-04-25T17:28:40.337Z,79.60
2023-04-25T17:31:07.274Z,79.70
2023-04-25T17:33:34.244Z,79.90
2023-04-25T17:36:01.167Z,80.20
2023-04-25T17:38:27.841Z,80.50
2023-04-25T17:40:54.540Z,80.70
2023-04-25T17:43:21.350Z,81.20
2023-04-25T17:45:48.106Z,81.90
2023-04-25T17:48:15.913Z,82.50
2023-04-25T17:50:42.669Z,83.10
2023-04-25T17:53:10.574Z,83.50
2023-04-25T17:55:38.633Z,84.10
2023-04-25T17:58:10.032Z,84.80
2023-04-25T18:00:39.308Z,85.70
2023-04-25T18:03:09.934Z,86.40
2023-04-25T18:05:40.470Z,86.80
2023-04-25T18:08:07.162Z,87.10
2023-04-25T18:10:34.316Z,87.70
2023-04-25T18:13:01.185Z,88.30
2023-04-25T18:15:27.878Z,88.70
2023-04-25T18:17:54.687Z,89.40
2023-04-25T18:20:21.427Z,89.70
2023-04-25T18:22:49.474Z,89.90
2023-04-25T18:25:16.185Z,90.10
2023-04-25T18:27:44.275Z,90.20
2023-04-25T18:30:13.552Z,90.50
2023-04-25T18:32:41.418Z,90.60
2023-04-25T18:35:08.676Z,90.80
2023-04-25T18:37:40.377Z,91.70
2023-04-25T18:40:13.088Z,92.00
2023-04-25T18:42:44.171Z,92.70
2023-04-25T18:45:14.498Z,93.20
2023-04-25T18:47:42.378Z,94.00
2023-04-25T18:50:17.441Z,94.90
2023-04-25T18:52:45.558Z,95.70
2023-04-25T18:55:12.232Z,96.40
2023-04-25T18:57:43.253Z,97.20
2023-04-25T19:00:10.570Z,97.80
2023-04-25T19:02:37.533Z,98.20
2023-04-25T19:05:04.721Z,98.40
2023-04-25T19:07:31.408Z,98.60
2023-04-25T19:09:58.356Z,98.40
2023-04-25T19:12:25.706Z,98.00
2023-04-25T19:14:52.392Z,96.40
2023-04-25T19:17:19.101Z,95.90
2023-04-25T19:19:45.845Z,95.50
2023-04-25T19:22:12.663Z,95.50
2023-04-25T19:24:39.411Z,95.20
2023-04-25T19:27:06.231Z,95.00
2023-04-25T19:29:34.039Z,94.60
2023-04-25T19:32:01.211Z,94.60
2023-04-25T19:34:37.733Z,94.40
2023-04-25T19:37:05.897Z,94.20
2023-04-25T19:39:33.206Z,93.50
2023-04-25T19:42:04.571Z,93.30
2023-04-25T19:44:36.095Z,93.30
2023-04-25T19:47:05.103Z,93.60
2023-04-25T19:49:35.655Z,93.60
2023-04-25T19:52:06.211Z,93.60
2023-04-25T19:54:37.481Z,93.60
2023-04-25T19:57:06.235Z,93.70
2023-04-25T19:59:32.914Z,94.00
2023-04-25T20:02:00.765Z,94.20
2023-04-25T20:04:27.638Z,94.30
2023-04-25T20:06:54.345Z,94.60
2023-04-25T20:09:21.011Z,94.90
2023-04-25T20:11:49.188Z,95.20
2023-04-25T20:14:17.209Z,95.50
2023-04-25T20:16:45.179Z,95.90
2023-04-25T20:19:12.596Z,96.20
2023-04-25T20:21:40.857Z,96.50
2023-04-25T20:24:07.738Z,96.60
2023-04-25T20:26:34.436Z,97.00
2023-04-25T20:29:01.558Z,97.40
2023-04-25T20:31:29.211Z,97.80
2023-04-25T20:33:56.039Z,98.20
2023-04-25T20:36:22.722Z,98.30
2023-04-25T20:38:50.884Z,98.60
2023-04-25T20:41:17.760Z,98.90
2023-04-25T20:43:45.683Z,99.10
2023-04-25T20:46:12.624Z,99.30
2023-04-25T20:48:40.496Z,99.40
2023-04-25T20:51:07.543Z,99.70
2023-04-25T20:53:35.384Z,99.90
2023-04-25T20:56:07.016Z,99.90
2023-04-25T20:58:33.714Z,99.90
2023-04-25T21:01:00.553Z,99.90
2023-04-25T21:03:27.399Z,99.90
2023-04-25T21:05:54.550Z,99.90
2023-04-25T21:08:21.242Z,99.90
2023-04-25T21:10:47.948Z,99.90
2023-04-25T21:13:14.695Z,99.90
2023-04-25T21:15:41.454Z,99.90
2023-04-25T21:18:08.296Z,99.90
2023-04-25T21:20:35.106Z,99.90
2023-04-25T21:23:01.830Z,99.90
2023-04-25T21:25:28.577Z,99.90
2023-04-25T21:27:55.221Z,99.90
2023-04-25T21:30:23.924Z,99.90
2023-04-25T21:32:51.970Z,99.90
2023-04-25T21:35:24.315Z,99.90
2023-04-25T21:37:52.574Z,99.90
2023-04-25T21:40:21.749Z,99.90
2023-04-25T21:42:48.836Z,99.90
2023-04-25T21:45:15.828Z,99.90
2023-04-25T21:47:42.644Z,99.90
2023-04-25T21:50:09.549Z,99.90
2023-04-25T21:52:37.140Z,99.90
2023-04-25T21:55:03.980Z,99.90
2023-04-25T21:57:30.662Z,99.90
2023-04-25T21:59:57.466Z,99.90
2023-04-25T22:02:24.334Z,99.90
2023-04-25T22:04:51.445Z,99.90
2023-04-25T22:07:19.116Z,99.90
2023-04-25T22:09:54.385Z,99.90
2023-04-25T22:12:22.484Z,99.90
2023-04-25T22:14:49.250Z,99.90
2023-04-25T22:17:18.348Z,99.90
2023-04-25T22:19:45.481Z,99.90
2023-04-25T22:22:14.539Z,99.90
2023-04-25T22:24:41.204Z,99.90
2023-04-25T22:27:07.958Z,99.90
2023-04-25T22:29:34.657Z,99.90
2023-04-25T22:32:01.515Z,99.90
2023-04-25T22:34:28.488Z,99.90
2023-04-25T22:36:55.475Z,99.90
2023-04-25T22:39:22.139Z,99.90
2023-04-25T22:41:48.903Z,99.90
2023-04-25T22:44:15.665Z,99.90
2023-04-25T22:46:42.388Z,99.90
2023-04-25T22:49:09.112Z,99.90
2023-04-25T22:51:35.979Z,99.90
2023-04-25T22:54:02.818Z,99.90
2023-04-25T22:56:30.798Z,99.90
2023-04-25T22:58:57.477Z,99.90
2023-04-25T23:01:25.477Z,99.90
2023-04-25T23:03:53.459Z,99.90
2023-04-25T23:06:21.516Z,99.90
2023-04-25T23:08:48.420Z,99.90
2023-04-25T23:11:15.080Z,99.90
2023-04-25T23:13:41.742Z,99.90
2023-04-25T23:16:09.632Z,99.90
2023-04-25T23:18:39.951Z,99.90
2023-04-25T23:21:07.742Z,99.90
2023-04-25T23:23:34.958Z,99.90
2023-04-25T23:26:06.594Z,99.90
2023-04-25T23:28:33.295Z,99.90
2023-04-25T23:31:10.429Z,99.90
2023-04-25T23:33:37.390Z,99.90
2023-04-25T23:36:04.393Z,99.90
2023-04-25T23:38:32.250Z,99.90
2023-04-25T23:40:58.941Z,99.90
2023-04-25T23:43:25.649Z,99.90
2023-04-25T23:45:52.383Z,99.90
2023-04-25T23:48:20.590Z,99.90
2023-04-25T23:50:48.503Z,99.90
2023-04-25T23:53:17.632Z,99.90
2023-04-25T23:55:47.327Z,99.90
2023-04-25T23:58:15.306Z,99.90
